sensor_id;sensor_type;location;lat;lon;timestamp;pressure;altitude;pressure_sealevel;temperature
15709;BMP180;7954;51.914;8.420;2022-09-23T00:02:03;100651.50;;;17.56
15709;BMP180;7954;51.914;8.420;2022-09-23T00:04:32;100647.16;;;17.49
15709;BMP180;7954;51.914;8.420;2022-09-23T00:07:00;100643.25;;;17.46
15709;BMP180;7954;51.914;8.420;2022-09-23T00:09:28;100641.91;;;17.42
15709;BMP180;7954;51.914;8.420;2022-09-23T00:11:57;100644.97;;;17.40
15709;BMP180;7954;51.914;8.420;2022-09-23T00:14:27;100644.03;;;17.39
15709;BMP180;7954;51.914;8.420;2022-09-23T00:16:55;100638.00;;;17.39
15709;BMP180;7954;51.914;8.420;2022-09-23T00:19:23;100637.13;;;17.33
15709;BMP180;7954;51.914;8.420;2022-09-23T00:21:51;100630.16;;;17.32
15709;BMP180;7954;51.914;8.420;2022-09-23T00:24:19;100632.31;;;17.29
15709;BMP180;7954;51.914;8.420;2022-09-23T00:26:47;100629.28;;;17.26
15709;BMP180;7954;51.914;8.420;2022-09-23T00:29:16;100629.03;;;17.25
15709;BMP180;7954;51.914;8.420;2022-09-23T00:31:44;100626.50;;;17.25
15709;BMP180;7954;51.914;8.420;2022-09-23T00:34:13;100621.88;;;17.22
15709;BMP180;7954;51.914;8.420;2022-09-23T00:36:41;100632.16;;;17.17
15709;BMP180;7954;51.914;8.420;2022-09-23T00:39:09;100631.00;;;17.15
15709;BMP180;7954;51.914;8.420;2022-09-23T00:41:37;100629.13;;;17.14
15709;BMP180;7954;51.914;8.420;2022-09-23T00:44:41;100625.88;;;17.15
15709;BMP180;7954;51.914;8.420;2022-09-23T00:47:15;100622.69;;;17.10
15709;BMP180;7954;51.914;8.420;2022-09-23T00:49:45;100619.00;;;17.08
15709;BMP180;7954;51.914;8.420;2022-09-23T00:52:17;100619.47;;;17.06
15709;BMP180;7954;51.914;8.420;2022-09-23T00:54:46;100618.31;;;17.04
15709;BMP180;7954;51.914;8.420;2022-09-23T00:57:16;100613.50;;;17.00
15709;BMP180;7954;51.914;8.420;2022-09-23T00:59:48;100615.63;;;16.97
15709;BMP180;7954;51.914;8.420;2022-09-23T01:02:17;100613.34;;;16.93
15709;BMP180;7954;51.914;8.420;2022-09-23T01:04:48;100611.28;;;16.90
15709;BMP180;7954;51.914;8.420;2022-09-23T01:07:17;100608.25;;;16.87
15709;BMP180;7954;51.914;8.420;2022-09-23T01:09:46;100612.72;;;16.83
15709;BMP180;7954;51.914;8.420;2022-09-23T01:12:25;100612.72;;;16.83
15709;BMP180;7954;51.914;8.420;2022-09-23T01:15:07;100614.13;;;16.81
15709;BMP180;7954;51.914;8.420;2022-09-23T01:17:43;100609.50;;;16.78
15709;BMP180;7954;51.914;8.420;2022-09-23T01:20:29;100600.22;;;16.79
15709;BMP180;7954;51.914;8.420;2022-09-23T01:23:15;100599.09;;;16.77
15709;BMP180;7954;51.914;8.420;2022-09-23T01:26:00;100593.31;;;16.73
15709;BMP180;7954;51.914;8.420;2022-09-23T01:28:48;100596.81;;;16.73
15709;BMP180;7954;51.914;8.420;2022-09-23T01:31:30;100589.88;;;16.67
15709;BMP180;7954;51.914;8.420;2022-09-23T01:34:07;100584.56;;;16.65
15709;BMP180;7954;51.914;8.420;2022-09-23T01:36:41;100582.28;;;16.61
15709;BMP180;7954;51.914;8.420;2022-09-23T01:39:17;100587.88;;;16.59
15709;BMP180;7954;51.914;8.420;2022-09-23T01:41:52;100582.34;;;16.56
15709;BMP180;7954;51.914;8.420;2022-09-23T01:44:28;100586.72;;;16.57
15709;BMP180;7954;51.914;8.420;2022-09-23T01:47:01;100579.31;;;16.53
15709;BMP180;7954;51.914;8.420;2022-09-23T01:49:38;100579.59;;;16.49
15709;BMP180;7954;51.914;8.420;2022-09-23T01:52:14;100574.06;;;16.46
15709;BMP180;7954;51.914;8.420;2022-09-23T01:54:47;100574.97;;;16.46
15709;BMP180;7954;51.914;8.420;2022-09-23T01:57:20;100575.94;;;16.41
15709;BMP180;7954;51.914;8.420;2022-09-23T01:59:55;100570.16;;;16.37
15709;BMP180;7954;51.914;8.420;2022-09-23T02:02:28;100572.50;;;16.35
15709;BMP180;7954;51.914;8.420;2022-09-23T02:05:02;100563.00;;;16.34
15709;BMP180;7954;51.914;8.420;2022-09-23T02:07:34;100572.50;;;16.35
15709;BMP180;7954;51.914;8.420;2022-09-23T02:10:09;100572.50;;;16.35
15709;BMP180;7954;51.914;8.420;2022-09-23T02:12:39;100564.41;;;16.32
15709;BMP180;7954;51.914;8.420;2022-09-23T02:15:13;100566.50;;;16.35
15709;BMP180;7954;51.914;8.420;2022-09-23T02:17:47;100566.28;;;16.33
15709;BMP180;7954;51.914;8.420;2022-09-23T02:20:19;100561.88;;;16.32
15709;BMP180;7954;51.914;8.420;2022-09-23T02:22:52;100559.81;;;16.30
15709;BMP180;7954;51.914;8.420;2022-09-23T02:25:26;100562.09;;;16.34
15709;BMP180;7954;51.914;8.420;2022-09-23T02:28:01;100562.78;;;16.33
15709;BMP180;7954;51.914;8.420;2022-09-23T02:30:37;100564.84;;;16.35
15709;BMP180;7954;51.914;8.420;2022-09-23T02:33:16;100556.28;;;16.35
15709;BMP180;7954;51.914;8.420;2022-09-23T02:35:49;100561.66;;;16.31
15709;BMP180;7954;51.914;8.420;2022-09-23T02:38:25;100562.56;;;16.31
15709;BMP180;7954;51.914;8.420;2022-09-23T02:40:58;100557.94;;;16.29
15709;BMP180;7954;51.914;8.420;2022-09-23T02:43:35;100561.88;;;16.27
15709;BMP180;7954;51.914;8.420;2022-09-23T02:46:06;100551.44;;;16.25
15709;BMP180;7954;51.914;8.420;2022-09-23T02:48:40;100551.94;;;16.23
15709;BMP180;7954;51.914;8.420;2022-09-23T02:51:09;100557.97;;;16.23
15709;BMP180;7954;51.914;8.420;2022-09-23T02:53:37;100552.63;;;16.22
15709;BMP180;7954;51.914;8.420;2022-09-23T02:56:13;100555.66;;;16.19
15709;BMP180;7954;51.914;8.420;2022-09-23T02:58:41;100546.41;;;16.20
15709;BMP180;7954;51.914;8.420;2022-09-23T03:01:15;100549.44;;;16.17
15709;BMP180;7954;51.914;8.420;2022-09-23T03:03:53;100544.81;;;16.15
15709;BMP180;7954;51.914;8.420;2022-09-23T03:06:27;100536.22;;;16.14
15709;BMP180;7954;51.914;8.420;2022-09-23T03:09:03;100536.00;;;16.13
15709;BMP180;7954;51.914;8.420;2022-09-23T03:11:36;100534.88;;;16.11
15709;BMP180;7954;51.914;8.420;2022-09-23T03:14:12;100540.19;;;16.12
15709;BMP180;7954;51.914;8.420;2022-09-23T03:16:49;100527.72;;;16.08
15709;BMP180;7954;51.914;8.420;2022-09-23T03:19:26;100528.88;;;16.05
15709;BMP180;7954;51.914;8.420;2022-09-23T03:22:00;100528.69;;;16.04
15709;BMP180;7954;51.914;8.420;2022-09-23T03:24:31;100533.31;;;16.01
15709;BMP180;7954;51.914;8.420;2022-09-23T03:27:03;100536.78;;;16.01
15709;BMP180;7954;51.914;8.420;2022-09-23T03:29:32;100535.41;;;15.98
15709;BMP180;7954;51.914;8.420;2022-09-23T03:32:03;100535.19;;;15.96
15709;BMP180;7954;51.914;8.420;2022-09-23T03:34:35;100525.50;;;15.94
15709;BMP180;7954;51.914;8.420;2022-09-23T03:37:09;100523.84;;;15.94
15709;BMP180;7954;51.914;8.420;2022-09-23T03:39:40;100529.44;;;15.92
15709;BMP180;7954;51.914;8.420;2022-09-23T03:42:15;100526.88;;;15.92
15709;BMP180;7954;51.914;8.420;2022-09-23T03:44:44;100525.97;;;15.91
15709;BMP180;7954;51.914;8.420;2022-09-23T03:47:14;100522.47;;;15.91
15709;BMP180;7954;51.914;8.420;2022-09-23T03:49:45;100519.94;;;15.91
15709;BMP180;7954;51.914;8.420;2022-09-23T03:52:14;100518.06;;;15.90
15709;BMP180;7954;51.914;8.420;2022-09-23T03:54:41;100511.38;;;15.90
15709;BMP180;7954;51.914;8.420;2022-09-23T03:57:10;100496.56;;;15.88
15709;BMP180;7954;51.914;8.420;2022-09-23T03:59:38;100496.56;;;15.88
15709;BMP180;7954;51.914;8.420;2022-09-23T04:02:06;100495.63;;;15.87
15709;BMP180;7954;51.914;8.420;2022-09-23T04:04:36;100494.50;;;15.85
15709;BMP180;7954;51.914;8.420;2022-09-23T04:07:07;100483.84;;;15.82
15709;BMP180;7954;51.914;8.420;2022-09-23T04:09:36;100494.78;;;15.81
15709;BMP180;7954;51.914;8.420;2022-09-23T04:12:04;100479.25;;;15.80
15709;BMP180;7954;51.914;8.420;2022-09-23T04:14:32;100495.47;;;15.75
15709;BMP180;7954;51.914;8.420;2022-09-23T04:17:00;100477.66;;;15.75
15709;BMP180;7954;51.914;8.420;2022-09-23T04:19:30;100479.75;;;15.72
15709;BMP180;7954;51.914;8.420;2022-09-23T04:21:58;100486.72;;;15.73
15709;BMP180;7954;51.914;8.420;2022-09-23T04:24:27;100478.59;;;15.70
15709;BMP180;7954;51.914;8.420;2022-09-23T04:26:55;100477.28;;;15.66
15709;BMP180;7954;51.914;8.420;2022-09-23T04:29:24;100472.88;;;15.65
15709;BMP180;7954;51.914;8.420;2022-09-23T04:31:53;100475.88;;;15.63
15709;BMP180;7954;51.914;8.420;2022-09-23T04:34:21;100468.25;;;15.63
15709;BMP180;7954;51.914;8.420;2022-09-23T04:36:49;100469.63;;;15.61
15709;BMP180;7954;51.914;8.420;2022-09-23T04:39:17;100469.91;;;15.57
15709;BMP180;7954;51.914;8.420;2022-09-23T04:41:46;100473.13;;;15.56
15709;BMP180;7954;51.914;8.420;2022-09-23T04:44:14;100468.72;;;15.55
15709;BMP180;7954;51.914;8.420;2022-09-23T04:46:43;100465.53;;;15.50
15709;BMP180;7954;51.914;8.420;2022-09-23T04:49:13;100461.34;;;15.51
15709;BMP180;7954;51.914;8.420;2022-09-23T04:51:41;100469.00;;;15.51
15709;BMP180;7954;51.914;8.420;2022-09-23T04:54:09;100471.09;;;15.48
15709;BMP180;7954;51.914;8.420;2022-09-23T04:56:39;100466.72;;;15.47
15709;BMP180;7954;51.914;8.420;2022-09-23T04:59:09;100463.94;;;15.45
15709;BMP180;7954;51.914;8.420;2022-09-23T05:01:38;100464.19;;;15.42
15709;BMP180;7954;51.914;8.420;2022-09-23T05:04:09;100465.81;;;15.41
15709;BMP180;7954;51.914;8.420;2022-09-23T05:06:39;100469.50;;;15.38
15709;BMP180;7954;51.914;8.420;2022-09-23T05:09:13;100473.25;;;15.34
15709;BMP180;7954;51.914;8.420;2022-09-23T05:11:41;100465.84;;;15.30
15709;BMP180;7954;51.914;8.420;2022-09-23T05:14:11;100465.41;;;15.27
15709;BMP180;7954;51.914;8.420;2022-09-23T05:16:39;100456.63;;;15.25
15709;BMP180;7954;51.914;8.420;2022-09-23T05:19:06;100464.97;;;15.24
15709;BMP180;7954;51.914;8.420;2022-09-23T05:21:34;100460.06;;;15.20
15709;BMP180;7954;51.914;8.420;2022-09-23T05:24:03;100461.94;;;15.21
15709;BMP180;7954;51.914;8.420;2022-09-23T05:26:32;100466.34;;;15.22
15709;BMP180;7954;51.914;8.420;2022-09-23T05:29:00;100465.41;;;15.22
15709;BMP180;7954;51.914;8.420;2022-09-23T05:31:29;100461.25;;;15.22
15709;BMP180;7954;51.914;8.420;2022-09-23T05:33:58;100459.41;;;15.21
15709;BMP180;7954;51.914;8.420;2022-09-23T05:36:29;100466.34;;;15.22
15709;BMP180;7954;51.914;8.420;2022-09-23T05:39:04;100455.50;;;15.23
15709;BMP180;7954;51.914;8.420;2022-09-23T05:41:33;100451.09;;;15.22
15709;BMP180;7954;51.914;8.420;2022-09-23T05:44:01;100450.13;;;15.22
15709;BMP180;7954;51.914;8.420;2022-09-23T05:46:31;100454.31;;;15.21
15709;BMP180;7954;51.914;8.420;2022-09-23T05:49:00;100449.72;;;15.24
15709;BMP180;7954;51.914;8.420;2022-09-23T05:51:31;100453.38;;;15.26
15709;BMP180;7954;51.914;8.420;2022-09-23T05:54:00;100452.47;;;15.26
15709;BMP180;7954;51.914;8.420;2022-09-23T05:56:30;100451.03;;;15.28
15709;BMP180;7954;51.914;8.420;2022-09-23T05:59:01;100459.59;;;15.34
15709;BMP180;7954;51.914;8.420;2022-09-23T06:01:32;100449.88;;;15.37
15709;BMP180;7954;51.914;8.420;2022-09-23T06:04:03;100445.91;;;15.44
15709;BMP180;7954;51.914;8.420;2022-09-23T06:06:33;100442.16;;;15.47
15709;BMP180;7954;51.914;8.420;2022-09-23T06:09:02;100445.41;;;15.52
15709;BMP180;7954;51.914;8.420;2022-09-23T06:11:31;100430.09;;;15.57
15709;BMP180;7954;51.914;8.420;2022-09-23T06:14:00;100441.63;;;15.61
15709;BMP180;7954;51.914;8.420;2022-09-23T06:16:30;100434.69;;;15.65
15709;BMP180;7954;51.914;8.420;2022-09-23T06:18:59;100430.97;;;15.69
15709;BMP180;7954;51.914;8.420;2022-09-23T06:21:33;100439.00;;;15.77
15709;BMP180;7954;51.914;8.420;2022-09-23T06:24:01;100441.53;;;15.83
15709;BMP180;7954;51.914;8.420;2022-09-23T06:26:30;100441.25;;;15.87
15709;BMP180;7954;51.914;8.420;2022-09-23T06:29:01;100446.53;;;15.94
15709;BMP180;7954;51.914;8.420;2022-09-23T06:31:29;100434.44;;;16.04
15709;BMP180;7954;51.914;8.420;2022-09-23T06:34:00;100448.25;;;16.11
15709;BMP180;7954;51.914;8.420;2022-09-23T06:36:38;100452.34;;;16.21
15709;BMP180;7954;51.914;8.420;2022-09-23T06:39:11;100448.16;;;16.27
15709;BMP180;7954;51.914;8.420;2022-09-23T06:41:39;100451.59;;;16.33
15709;BMP180;7954;51.914;8.420;2022-09-23T06:44:07;100446.38;;;16.44
15709;BMP180;7954;51.914;8.420;2022-09-23T06:46:35;100458.38;;;16.51
15709;BMP180;7954;51.914;8.420;2022-09-23T06:49:04;100454.38;;;16.58
15709;BMP180;7954;51.914;8.420;2022-09-23T06:51:32;100448.94;;;16.68
15709;BMP180;7954;51.914;8.420;2022-09-23T06:54:00;100449.53;;;16.77
15709;BMP180;7954;51.914;8.420;2022-09-23T06:56:28;100446.22;;;16.84
15709;BMP180;7954;51.914;8.420;2022-09-23T06:59:04;100437.81;;;16.90
15709;BMP180;7954;51.914;8.420;2022-09-23T07:01:32;100432.63;;;16.96
15709;BMP180;7954;51.914;8.420;2022-09-23T07:04:00;100433.91;;;17.05
15709;BMP180;7954;51.914;8.420;2022-09-23T07:06:29;100432.94;;;17.10
15709;BMP180;7954;51.914;8.420;2022-09-23T07:08:57;100444.00;;;17.16
15709;BMP180;7954;51.914;8.420;2022-09-23T07:11:26;100442.09;;;17.20
15709;BMP180;7954;51.914;8.420;2022-09-23T07:13:54;100429.50;;;17.27
15709;BMP180;7954;51.914;8.420;2022-09-23T07:16:22;100430.38;;;17.33
15709;BMP180;7954;51.914;8.420;2022-09-23T07:18:50;100426.13;;;17.39
15709;BMP180;7954;51.914;8.420;2022-09-23T07:21:19;100435.13;;;17.42
15709;BMP180;7954;51.914;8.420;2022-09-23T07:23:48;100434.34;;;17.49
15709;BMP180;7954;51.914;8.420;2022-09-23T07:26:18;100436.75;;;17.60
15709;BMP180;7954;51.914;8.420;2022-09-23T07:28:46;100429.34;;;17.74
15709;BMP180;7954;51.914;8.420;2022-09-23T07:31:15;100432.84;;;17.87
15709;BMP180;7954;51.914;8.420;2022-09-23T07:33:58;100432.19;;;18.00
15709;BMP180;7954;51.914;8.420;2022-09-23T07:36:28;100433.66;;;18.10
15709;BMP180;7954;51.914;8.420;2022-09-23T07:38:59;100430.22;;;18.22
15709;BMP180;7954;51.914;8.420;2022-09-23T07:41:31;100429.34;;;18.34
15709;BMP180;7954;51.914;8.420;2022-09-23T07:43:59;100430.97;;;18.46
15709;BMP180;7954;51.914;8.420;2022-09-23T07:46:29;100419.66;;;18.57
15709;BMP180;7954;51.914;8.420;2022-09-23T07:48:59;100416.88;;;18.68
15709;BMP180;7954;51.914;8.420;2022-09-23T07:51:29;100415.94;;;18.79
15709;BMP180;7954;51.914;8.420;2022-09-23T07:54:04;100407.75;;;18.94
15709;BMP180;7954;51.914;8.420;2022-09-23T07:56:32;100415.44;;;19.07
15709;BMP180;7954;51.914;8.420;2022-09-23T07:59:02;100410.28;;;19.19
15709;BMP180;7954;51.914;8.420;2022-09-23T08:01:32;100413.00;;;19.33
15709;BMP180;7954;51.914;8.420;2022-09-23T08:04:02;100400.16;;;19.45
15709;BMP180;7954;51.914;8.420;2022-09-23T08:06:31;100401.97;;;19.59
15709;BMP180;7954;51.914;8.420;2022-09-23T08:08:59;100406.13;;;19.71
15709;BMP180;7954;51.914;8.420;2022-09-23T08:11:29;100408.81;;;19.85
15709;BMP180;7954;51.914;8.420;2022-09-23T08:13:57;100411.16;;;19.96
15709;BMP180;7954;51.914;8.420;2022-09-23T08:16:25;100408.72;;;20.09
15709;BMP180;7954;51.914;8.420;2022-09-23T08:18:53;100404.75;;;20.18
15709;BMP180;7954;51.914;8.420;2022-09-23T08:21:21;100417.72;;;20.32
15709;BMP180;7954;51.914;8.420;2022-09-23T08:23:49;100409.53;;;20.42
15709;BMP180;7954;51.914;8.420;2022-09-23T08:26:17;100409.06;;;20.58
15709;BMP180;7954;51.914;8.420;2022-09-23T08:28:50;100405.19;;;20.74
15709;BMP180;7954;51.914;8.420;2022-09-23T08:31:22;100400.34;;;20.89
15709;BMP180;7954;51.914;8.420;2022-09-23T08:33:52;100395.09;;;21.09
15709;BMP180;7954;51.914;8.420;2022-09-23T08:36:22;100393.34;;;21.22
15709;BMP180;7954;51.914;8.420;2022-09-23T08:38:50;100396.47;;;21.33
15709;BMP180;7954;51.914;8.420;2022-09-23T08:41:22;100384.41;;;21.46
15709;BMP180;7954;51.914;8.420;2022-09-23T08:43:56;100389.81;;;21.61
15709;BMP180;7954;51.914;8.420;2022-09-23T08:46:30;100382.09;;;21.68
15709;BMP180;7954;51.914;8.420;2022-09-23T08:48:59;100383.03;;;21.76
15709;BMP180;7954;51.914;8.420;2022-09-23T08:51:33;100376.22;;;21.83
15709;BMP180;7954;51.914;8.420;2022-09-23T08:54:02;100378.81;;;21.90
15709;BMP180;7954;51.914;8.420;2022-09-23T08:56:31;100379.34;;;21.95
15709;BMP180;7954;51.914;8.420;2022-09-23T08:59:05;100380.81;;;21.99
15709;BMP180;7954;51.914;8.420;2022-09-23T09:01:40;100387.09;;;22.15
15709;BMP180;7954;51.914;8.420;2022-09-23T09:04:15;100372.59;;;22.30
15709;BMP180;7954;51.914;8.420;2022-09-23T09:06:46;100377.72;;;22.44
15709;BMP180;7954;51.914;8.420;2022-09-23T09:09:26;100366.53;;;22.43
15709;BMP180;7954;51.914;8.420;2022-09-23T09:11:58;100363.75;;;22.42
15709;BMP180;7954;51.914;8.420;2022-09-23T09:14:35;100373.13;;;22.48
15709;BMP180;7954;51.914;8.420;2022-09-23T09:17:09;100369.41;;;22.60
15709;BMP180;7954;51.914;8.420;2022-09-23T09:19:53;100373.97;;;22.76
15709;BMP180;7954;51.914;8.420;2022-09-23T09:22:36;100370.63;;;22.91
15709;BMP180;7954;51.914;8.420;2022-09-23T09:25:16;100373.91;;;23.04
15709;BMP180;7954;51.914;8.420;2022-09-23T09:27:46;100362.63;;;23.18
15709;BMP180;7954;51.914;8.420;2022-09-23T09:30:17;100357.63;;;23.26
15709;BMP180;7954;51.914;8.420;2022-09-23T09:32:47;100354.25;;;23.34
15709;BMP180;7954;51.914;8.420;2022-09-23T09:35:27;100354.16;;;23.48
15709;BMP180;7954;51.914;8.420;2022-09-23T09:37:56;100352.47;;;23.55
15709;BMP180;7954;51.914;8.420;2022-09-23T09:40:23;100340.44;;;23.63
15709;BMP180;7954;51.914;8.420;2022-09-23T09:42:51;100339.97;;;23.81
15709;BMP180;7954;51.914;8.420;2022-09-23T09:45:28;100337.28;;;23.95
15709;BMP180;7954;51.914;8.420;2022-09-23T09:48:05;100336.69;;;24.19
15709;BMP180;7954;51.914;8.420;2022-09-23T09:50:43;100333.38;;;24.43
15709;BMP180;7954;51.914;8.420;2022-09-23T09:53:21;100324.19;;;24.53
15709;BMP180;7954;51.914;8.420;2022-09-23T09:55:57;100327.94;;;24.63
15709;BMP180;7954;51.914;8.420;2022-09-23T09:58:40;100319.47;;;24.80
15709;BMP180;7954;51.914;8.420;2022-09-23T10:01:22;100319.00;;;24.99
15709;BMP180;7954;51.914;8.420;2022-09-23T10:03:52;100309.03;;;25.02
15709;BMP180;7954;51.914;8.420;2022-09-23T10:06:25;100312.88;;;25.06
15709;BMP180;7954;51.914;8.420;2022-09-23T10:09:14;100308.72;;;25.15
15709;BMP180;7954;51.914;8.420;2022-09-23T10:14:38;100294.91;;;25.23
15709;BMP180;7954;51.914;8.420;2022-09-23T10:17:14;100305.31;;;25.31
15709;BMP180;7954;51.914;8.420;2022-09-23T10:19:46;100303.97;;;25.34
15709;BMP180;7954;51.914;8.420;2022-09-23T10:22:20;100285.94;;;25.43
15709;BMP180;7954;51.914;8.420;2022-09-23T10:24:52;100295.69;;;25.45
15709;BMP180;7954;51.914;8.420;2022-09-23T10:27:26;100300.28;;;25.48
15709;BMP180;7954;51.914;8.420;2022-09-23T10:29:58;100294.84;;;25.38
15709;BMP180;7954;51.914;8.420;2022-09-23T10:32:30;100292.31;;;25.46
15709;BMP180;7954;51.914;8.420;2022-09-23T10:35:09;100291.44;;;25.46
15709;BMP180;7954;51.914;8.420;2022-09-23T10:37:40;100290.19;;;25.42
15709;BMP180;7954;51.914;8.420;2022-09-23T10:40:14;100285.97;;;25.51
15709;BMP180;7954;51.914;8.420;2022-09-23T10:43:19;100286.38;;;25.63
15709;BMP180;7954;51.914;8.420;2022-09-23T10:46:07;100280.25;;;25.62
15709;BMP180;7954;51.914;8.420;2022-09-23T10:49:15;100281.44;;;25.73
15709;BMP180;7954;51.914;8.420;2022-09-23T10:51:56;100279.19;;;25.84
15709;BMP180;7954;51.914;8.420;2022-09-23T10:54:34;100272.81;;;25.89
15709;BMP180;7954;51.914;8.420;2022-09-23T10:57:11;100286.59;;;26.05
15709;BMP180;7954;51.914;8.420;2022-09-23T11:00:02;100276.72;;;26.18
15709;BMP180;7954;51.914;8.420;2022-09-23T11:02:48;100281.16;;;26.19
15709;BMP180;7954;51.914;8.420;2022-09-23T11:05:35;100275.53;;;26.23
15709;BMP180;7954;51.914;8.420;2022-09-23T11:08:25;100281.00;;;26.26
15709;BMP180;7954;51.914;8.420;2022-09-23T11:11:02;100268.03;;;26.26
15709;BMP180;7954;51.914;8.420;2022-09-23T11:13:43;100267.78;;;26.31
15709;BMP180;7954;51.914;8.420;2022-09-23T11:16:27;100272.69;;;26.37
15709;BMP180;7954;51.914;8.420;2022-09-23T11:19:13;100262.66;;;26.48
15709;BMP180;7954;51.914;8.420;2022-09-23T11:22:05;100254.13;;;26.58
15709;BMP180;7954;51.914;8.420;2022-09-23T11:24:49;100251.09;;;26.61
15709;BMP180;7954;51.914;8.420;2022-09-23T11:27:33;100252.91;;;26.62
15709;BMP180;7954;51.914;8.420;2022-09-23T11:30:13;100247.28;;;26.66
15709;BMP180;7954;51.914;8.420;2022-09-23T11:32:56;100242.09;;;26.58
15709;BMP180;7954;51.914;8.420;2022-09-23T11:35:32;100232.94;;;26.53
15709;BMP180;7954;51.914;8.420;2022-09-23T11:38:05;100235.53;;;26.61
15709;BMP180;7954;51.914;8.420;2022-09-23T11:40:35;100232.81;;;26.68
15709;BMP180;7954;51.914;8.420;2022-09-23T11:43:14;100229.88;;;26.65
15709;BMP180;7954;51.914;8.420;2022-09-23T11:45:47;100237.66;;;26.65
15709;BMP180;7954;51.914;8.420;2022-09-23T11:48:22;100229.59;;;26.71
15709;BMP180;7954;51.914;8.420;2022-09-23T11:50:56;100227.47;;;26.67
15709;BMP180;7954;51.914;8.420;2022-09-23T11:53:37;100230.50;;;26.71
15709;BMP180;7954;51.914;8.420;2022-09-23T11:56:11;100235.41;;;26.68
15709;BMP180;7954;51.914;8.420;2022-09-23T11:58:57;100224.13;;;26.60
15709;BMP180;7954;51.914;8.420;2022-09-23T12:01:30;100237.22;;;26.61
15709;BMP180;7954;51.914;8.420;2022-09-23T12:04:05;100228.84;;;26.63
15709;BMP180;7954;51.914;8.420;2022-09-23T12:06:47;100230.97;;;26.67
15709;BMP180;7954;51.914;8.420;2022-09-23T12:09:21;100226.72;;;26.60
15709;BMP180;7954;51.914;8.420;2022-09-23T12:12:17;100223.50;;;26.70
15709;BMP180;7954;51.914;8.420;2022-09-23T12:14:56;100218.63;;;26.73
15709;BMP180;7954;51.914;8.420;2022-09-23T12:17:41;100219.53;;;26.65
15709;BMP180;7954;51.914;8.420;2022-09-23T12:20:32;100213.91;;;26.69
15709;BMP180;7954;51.914;8.420;2022-09-23T12:23:08;100205.97;;;26.85
15709;BMP180;7954;51.914;8.420;2022-09-23T12:25:43;100201.69;;;27.02
15709;BMP180;7954;51.914;8.420;2022-09-23T12:28:15;100201.50;;;27.18
15709;BMP180;7954;51.914;8.420;2022-09-23T12:30:48;100199.78;;;27.35
15709;BMP180;7954;51.914;8.420;2022-09-23T12:33:21;100198.53;;;27.40
15709;BMP180;7954;51.914;8.420;2022-09-23T12:35:51;100189.97;;;27.58
15709;BMP180;7954;51.914;8.420;2022-09-23T12:38:22;100180.84;;;27.80
15709;BMP180;7954;51.914;8.420;2022-09-23T12:40:54;100187.00;;;28.07
15709;BMP180;7954;51.914;8.420;2022-09-23T12:43:28;100184.72;;;28.28
15709;BMP180;7954;51.914;8.420;2022-09-23T12:46:16;100177.59;;;28.44
15709;BMP180;7954;51.914;8.420;2022-09-23T12:48:47;100178.13;;;28.50
15709;BMP180;7954;51.914;8.420;2022-09-23T12:51:25;100175.19;;;28.56
15709;BMP180;7954;51.914;8.420;2022-09-23T12:53:57;100176.53;;;28.60
15709;BMP180;7954;51.914;8.420;2022-09-23T12:57:00;100168.84;;;28.62
15709;BMP180;7954;51.914;8.420;2022-09-23T12:59:52;100171.25;;;28.69
15709;BMP180;7954;51.914;8.420;2022-09-23T13:02:27;100165.13;;;28.87
15709;BMP180;7954;51.914;8.420;2022-09-23T13:05:03;100170.19;;;29.04
15709;BMP180;7954;51.914;8.420;2022-09-23T13:07:57;100164.91;;;29.22
15709;BMP180;7954;51.914;8.420;2022-09-23T13:10:28;100181.81;;;29.27
15709;BMP180;7954;51.914;8.420;2022-09-23T13:13:00;100162.97;;;29.29
15709;BMP180;7954;51.914;8.420;2022-09-23T13:15:29;100160.22;;;29.46
15709;BMP180;7954;51.914;8.420;2022-09-23T13:21:15;100138.19;;;30.21
15709;BMP180;7954;51.914;8.420;2022-09-23T13:24:16;100137.94;;;30.48
15709;BMP180;7954;51.914;8.420;2022-09-23T13:26:46;100139.47;;;30.56
15709;BMP180;7954;51.914;8.420;2022-09-23T13:29:21;100129.84;;;30.45
15709;BMP180;7954;51.914;8.420;2022-09-23T13:31:51;100135.84;;;30.44
15709;BMP180;7954;51.914;8.420;2022-09-23T13:34:20;100126.81;;;30.60
15709;BMP180;7954;51.914;8.420;2022-09-23T13:36:49;100125.91;;;30.50
15709;BMP180;7954;51.914;8.420;2022-09-23T13:39:22;100127.63;;;30.49
15709;BMP180;7954;51.914;8.420;2022-09-23T13:41:52;100121.88;;;30.23
15709;BMP180;7954;51.914;8.420;2022-09-23T13:44:23;100120.72;;;30.10
15709;BMP180;7954;51.914;8.420;2022-09-23T13:46:53;100119.53;;;29.96
15709;BMP180;7954;51.914;8.420;2022-09-23T13:49:26;100113.69;;;29.99
15709;BMP180;7954;51.914;8.420;2022-09-23T13:51:55;100125.81;;;29.89
15709;BMP180;7954;51.914;8.420;2022-09-23T13:54:28;100126.16;;;29.63
15709;BMP180;7954;51.914;8.420;2022-09-23T13:56:58;100135.22;;;29.38
15709;BMP180;7954;51.914;8.420;2022-09-23T13:59:28;100130.44;;;29.24
15709;BMP180;7954;51.914;8.420;2022-09-23T14:02:01;100127.03;;;29.16
15709;BMP180;7954;51.914;8.420;2022-09-23T14:04:29;100123.91;;;29.20
15709;BMP180;7954;51.914;8.420;2022-09-23T14:06:57;100127.75;;;29.05
15709;BMP180;7954;51.914;8.420;2022-09-23T14:09:26;100122.84;;;29.08
15709;BMP180;7954;51.914;8.420;2022-09-23T14:11:56;100118.75;;;28.91
15709;BMP180;7954;51.914;8.420;2022-09-23T14:14:28;100102.09;;;28.71
15709;BMP180;7954;51.914;8.420;2022-09-23T14:16:57;100109.63;;;28.68
15709;BMP180;7954;51.914;8.420;2022-09-23T14:19:25;100112.94;;;28.57
15709;BMP180;7954;51.914;8.420;2022-09-23T14:21:54;100108.69;;;28.39
15709;BMP180;7954;51.914;8.420;2022-09-23T14:24:28;100101.09;;;28.32
15709;BMP180;7954;51.914;8.420;2022-09-23T14:26:59;100109.44;;;28.20
15709;BMP180;7954;51.914;8.420;2022-09-23T14:29:32;100101.09;;;28.05
15709;BMP180;7954;51.914;8.420;2022-09-23T14:32:04;100088.91;;;28.04
15709;BMP180;7954;51.914;8.420;2022-09-23T14:34:42;100096.47;;;28.11
15709;BMP180;7954;51.914;8.420;2022-09-23T14:37:20;100091.22;;;28.01
15709;BMP180;7954;51.914;8.420;2022-09-23T14:40:11;100095.03;;;27.78
15709;BMP180;7954;51.914;8.420;2022-09-23T14:42:42;100095.31;;;27.63
15709;BMP180;7954;51.914;8.420;2022-09-23T14:45:15;100101.13;;;27.60
15709;BMP180;7954;51.914;8.420;2022-09-23T14:47:47;100093.75;;;27.65
15709;BMP180;7954;51.914;8.420;2022-09-23T14:50:19;100092.22;;;27.67